Aviation Digital Data Service (ADDS)

Output produced by METARs form (1501 UTC 23 October 2017)
found at http://www.aviationweather.gov/adds/metars/
 
KTHV 231453Z AUTO 14006KT 10SM OVC014 18/16 A3020 RMK AO2 SLP230 T01830161 58014
KTHV 231353Z AUTO 14003KT 9SM BKN011 17/16 A3022 RMK AO2 SLP235 T01720161
KTHV 231253Z AUTO 10003KT 4SM BR OVC011 15/15 A3024 RMK AO2 SLP241 T01500150
KTHV 231238Z AUTO 12003KT 4SM BR FEW004 OVC012 15/15 A3024 RMK AO2 T01500150
KTHV 231220Z AUTO 12003KT 3SM BR BKN006 OVC014 14/14 A3024 RMK AO2 T01440144
KTHV 231213Z AUTO 11003KT 2 1/2SM BR BKN004 BKN008 OVC015 14/14 A3024 RMK AO2 T01440144
KTHV 231206Z AUTO 11004KT 1 1/4SM BR BKN004 OVC015 14/14 A3024 RMK AO2 T01440144
KTHV 231153Z AUTO 11004KT 1/2SM FG VV003 14/14 A3024 RMK AO2 SLP244 T01390139 10139 20106 56006
KTHV 231148Z AUTO 12004KT 1/2SM FG VV004 14/14 A3024 RMK AO2
KTHV 231120Z AUTO 12003KT 3/4SM BR VV005 14/14 A3025 RMK AO2 T01390139
KTHV 231053Z AUTO 12003KT 1/2SM FG VV003 13/13 A3025 RMK AO2 SLP246 T01330133 $
KTHV 231024Z AUTO 11003KT 1/2SM FG VV002 13/13 A3026 RMK AO2 T01330133 $
KTHV 231017Z AUTO 11004KT 1SM BR OVC003 13/13 A3026 RMK AO2 T01330133 $
KTHV 231011Z AUTO 12004KT 2SM BR OVC003 13/13 A3026 RMK AO2 T01330133 $
KTHV 230953Z AUTO 13004KT 10SM OVC004 13/13 A3026 RMK AO2 SLP250 T01280128 $
KTHV 230916Z AUTO 00000KT 10SM OVC004 13/13 A3027 RMK AO2 T01330128 $
KTHV 230853Z AUTO 00000KT 10SM OVC005 12/12 A3027 RMK AO2 SLP251 T01220122 58004 $
KTHV 230805Z AUTO 00000KT 10SM BKN007 10/10 A3028 RMK AO2 T01000100 $
KTHV 230755Z AUTO 00000KT 10SM SCT007 10/10 A3028 RMK AO2 T01000100 $
KTHV 230748Z AUTO 00000KT 10SM BKN007 11/11 A3028 RMK AO2 SLP255 T01060106 $
KTHV 230747Z AUTO 00000KT 10SM BKN007 11/11 A3028 RMK AO2 $
KTHV 230737Z AUTO 00000KT 10SM SCT008 11/11 A3028 RMK AO2 T01110111 $
KTHV 230653Z AUTO 00000KT 10SM CLR 11/11 A3028 RMK AO2 SLP254 T01060106 $
KTHV 230553Z AUTO 00000KT 10SM CLR 12/12 A3029 RMK AO2 SLP257 T01220117 10144 20100 56012 $
KTHV 230453Z AUTO VRB04KT 10SM CLR 13/11 A3030 RMK AO2 SLP261 T01280111 402390050 $
KTHV 230353Z AUTO 14005KT 10SM CLR 11/10 A3030 RMK AO2 SLP263 T01110100 $
KTHV 230253Z AUTO 12006KT 10SM CLR 11/09 A3032 RMK AO2 SLP270 T01060089 50001 $
KTHV 230153Z AUTO 00000KT 10SM CLR 10/09 A3034 RMK AO2 SLP275 T01000089 $
KTHV 230053Z AUTO 00000KT 10SM CLR 12/09 A3033 RMK AO2 SLP275 T01170089 $
KTHV 222353Z AUTO 00000KT 10SM CLR 11/08 A3032 RMK AO2 SLP272 T01110083 10239 20111 53006 $
KTHV 222253Z AUTO 00000KT 10SM CLR 15/07 A3030 RMK AO2 SLP264 T01500072 $
KTHV 222153Z AUTO 15006KT 10SM CLR 20/05 A3030 RMK AO2 SLP263 T02000050 $
KTHV 222053Z AUTO 14010KT 10SM CLR 21/08 A3030 RMK AO2 SLP264 T02110083 56012 $
KTHV 221953Z AUTO 15008KT 10SM CLR 23/09 A3031 RMK AO2 SLP264 T02280094 $
KTHV 221853Z AUTO 14005KT 10SM CLR 24/12 A3032 RMK AO2 SLP270 T02390117 $
KTHV 221753Z AUTO VRB05KT 10SM CLR 23/11 A3034 RMK AO2 SLP275 T02280111 10233 20056 56016 $
KTHV 221653Z AUTO 14009KT 10SM CLR 23/12 A3035 RMK AO2 SLP279 T02280117 $
KTHV 221553Z AUTO 00000KT 10SM CLR 21/12 A3037 RMK AO2 SLP286 T02110117 $
KTHV 221453Z AUTO 09003KT 10SM CLR 18/11 A3039 RMK AO2 SLP292 T01780106 58002 $
KTHV 220353Z AUTO 00000KT 10SM CLR 09/07 A3035 RMK AO2 SLP280 T00890067 $